createdAt,value
2022-12-04T00:04:44.568Z,12.33
2022-12-04T00:10:08.998Z,11.03
2022-12-04T00:15:33.409Z,12.20
2022-12-04T00:20:56.526Z,12.77
2022-12-04T00:26:21.140Z,11.37
2022-12-04T00:31:46.107Z,13.43
2022-12-04T00:37:09.347Z,11.13
2022-12-04T00:42:32.503Z,14.37
2022-12-04T00:47:57.149Z,14.37
2022-12-04T00:53:20.315Z,12.27
2022-12-04T00:58:43.526Z,12.13
2022-12-04T01:04:08.020Z,13.33
2022-12-04T01:09:31.220Z,13.57
2022-12-04T01:14:54.377Z,12.20
2022-12-04T01:20:19.201Z,13.73
2022-12-04T01:25:42.359Z,13.00
2022-12-04T01:31:07.617Z,14.27
2022-12-04T01:36:32.210Z,13.13
2022-12-04T01:41:55.390Z,12.80
2022-12-04T01:47:18.519Z,12.27
2022-12-04T01:52:43.269Z,14.07
2022-12-04T01:58:07.835Z,12.03
2022-12-04T02:03:31.048Z,12.33
2022-12-04T02:08:55.655Z,11.40
2022-12-04T02:14:25.387Z,13.37
2022-12-04T02:20:10.690Z,11.37
2022-12-04T02:25:40.895Z,13.30
2022-12-04T02:31:09.444Z,12.63
2022-12-04T02:36:35.404Z,11.93
2022-12-04T02:42:02.576Z,12.67
2022-12-04T02:47:27.411Z,13.83
2022-12-04T02:52:52.631Z,11.13
2022-12-04T02:58:17.991Z,12.97
2022-12-04T03:03:42.568Z,15.37
2022-12-04T03:09:11.017Z,13.77
2022-12-04T03:14:36.437Z,12.40
2022-12-04T03:20:04.838Z,14.43
2022-12-04T03:25:34.587Z,12.57
2022-12-04T03:31:01.670Z,11.87
2022-12-04T03:36:28.884Z,13.90
2022-12-04T03:41:57.180Z,14.50
2022-12-04T03:47:22.507Z,15.27
2022-12-04T03:52:52.416Z,14.50
2022-12-04T03:58:18.060Z,12.90
2022-12-04T04:03:46.070Z,14.67
2022-12-04T04:09:14.696Z,13.27
2022-12-04T04:14:59.014Z,14.97
2022-12-04T04:20:42.350Z,17.30
2022-12-04T04:26:07.830Z,13.57
2022-12-04T04:31:35.092Z,13.83
2022-12-04T04:37:02.620Z,14.67
2022-12-04T04:42:30.056Z,15.40
2022-12-04T04:47:55.438Z,14.83
2022-12-04T04:53:21.615Z,15.63
2022-12-04T04:58:46.134Z,14.10
2022-12-04T05:04:09.507Z,15.33
2022-12-04T05:09:35.702Z,15.30
2022-12-04T05:15:04.420Z,16.33
2022-12-04T05:20:27.487Z,15.17
2022-12-04T05:25:50.668Z,14.90
2022-12-04T05:31:15.200Z,14.87
2022-12-04T05:36:38.455Z,15.43
2022-12-04T05:42:01.801Z,15.03
2022-12-04T05:47:26.227Z,17.23
2022-12-04T05:52:49.253Z,15.70
2022-12-04T05:58:12.389Z,14.17
2022-12-04T06:03:36.921Z,15.13
2022-12-04T06:09:00.816Z,15.47
2022-12-04T06:14:23.991Z,15.63
2022-12-04T06:19:48.677Z,14.97
2022-12-04T06:25:11.847Z,15.37
2022-12-04T06:30:35.223Z,17.07
2022-12-04T06:36:04.416Z,16.10
2022-12-04T06:41:28.866Z,14.23
2022-12-04T06:46:54.687Z,14.47
2022-12-04T06:52:19.533Z,15.07
2022-12-04T06:57:42.748Z,14.57
2022-12-04T07:03:05.821Z,15.43
2022-12-04T07:08:30.200Z,13.87
2022-12-04T07:13:53.415Z,14.00
2022-12-04T07:19:16.575Z,14.80
2022-12-04T07:24:41.281Z,14.50
2022-12-04T07:30:05.164Z,14.90
2022-12-04T07:35:28.302Z,14.47
2022-12-04T07:40:52.976Z,14.63
2022-12-04T07:46:17.927Z,15.90
2022-12-04T07:51:41.145Z,14.27
2022-12-04T07:57:05.719Z,18.70
2022-12-04T08:02:29.610Z,15.33
2022-12-04T08:07:53.279Z,13.30
2022-12-04T08:13:17.940Z,14.00
2022-12-04T08:18:41.615Z,15.07
2022-12-04T08:24:04.894Z,17.00
2022-12-04T08:29:29.488Z,14.13
2022-12-04T08:34:56.043Z,15.83
2022-12-04T08:40:19.487Z,16.10
2022-12-04T08:45:44.277Z,15.23
2022-12-04T08:51:08.544Z,14.40
2022-12-04T08:56:32.187Z,14.93
2022-12-04T09:01:56.771Z,16.70
2022-12-04T09:07:19.946Z,15.03
2022-12-04T09:12:43.881Z,16.53
2022-12-04T09:18:08.729Z,14.80
2022-12-04T09:23:32.144Z,17.70
2022-12-04T09:28:56.338Z,15.57
2022-12-04T09:34:20.795Z,14.87
2022-12-04T09:39:43.901Z,15.27
2022-12-04T09:45:12.070Z,12.83
2022-12-04T09:50:40.679Z,15.03
2022-12-04T09:56:06.210Z,12.33
2022-12-04T10:01:33.329Z,11.17
2022-12-04T10:07:03.538Z,9.97
2022-12-04T10:12:34.928Z,9.90
2022-12-04T10:18:16.394Z,9.00
2022-12-04T10:23:49.794Z,11.17
2022-12-04T10:29:19.926Z,11.97
2022-12-04T10:34:45.732Z,10.13
2022-12-04T10:40:15.262Z,8.27
2022-12-04T10:45:38.573Z,8.30
2022-12-04T10:51:01.727Z,7.47
2022-12-04T10:56:27.190Z,7.20
2022-12-04T11:01:51.174Z,7.50
2022-12-04T11:07:22.052Z,7.67
2022-12-04T11:12:56.330Z,6.57
2022-12-04T11:18:21.453Z,8.00
2022-12-04T11:23:46.916Z,9.60
2022-12-04T11:29:15.846Z,7.80
2022-12-04T11:34:40.515Z,9.70
2022-12-04T11:40:06.897Z,8.33
2022-12-04T11:45:31.583Z,8.90
2022-12-04T11:50:59.361Z,9.83
2022-12-04T11:56:26.578Z,10.60
2022-12-04T12:01:58.756Z,8.67
2022-12-04T12:07:32.463Z,7.77
2022-12-04T12:13:02.407Z,8.70
2022-12-04T12:18:40.664Z,8.17
2022-12-04T12:24:16.757Z,9.47
2022-12-04T12:29:49.575Z,9.67
2022-12-04T12:35:21.313Z,8.67
2022-12-04T12:40:46.242Z,11.20
2022-12-04T12:46:12.564Z,11.40
2022-12-04T12:51:40.312Z,9.33
2022-12-04T12:57:07.361Z,11.00
2022-12-04T13:02:31.761Z,11.27
2022-12-04T13:08:01.876Z,9.50
2022-12-04T13:13:26.985Z,9.97
2022-12-04T13:18:54.173Z,11.30
2022-12-04T13:24:31.835Z,10.70
2022-12-04T13:30:06.774Z,12.80
2022-12-04T13:35:36.346Z,11.23
2022-12-04T13:41:02.074Z,12.23
2022-12-04T13:46:30.160Z,12.40
2022-12-04T13:51:53.974Z,13.43
2022-12-04T13:57:23.268Z,16.00
2022-12-04T14:02:51.748Z,12.80
2022-12-04T14:08:24.463Z,14.87
2022-12-04T14:13:51.249Z,12.47
2022-12-04T14:19:28.325Z,11.83
2022-12-04T14:24:51.407Z,12.43
2022-12-04T14:30:21.494Z,9.97
2022-12-04T14:35:46.697Z,10.10
2022-12-04T14:41:09.885Z,11.13
2022-12-04T14:46:39.357Z,7.73
2022-12-04T14:52:07.903Z,9.50
2022-12-04T14:57:44.356Z,11.47
2022-12-04T15:03:13.157Z,10.37
2022-12-04T15:08:36.447Z,9.67
2022-12-04T15:14:05.975Z,9.20
2022-12-04T15:19:30.435Z,9.23
2022-12-04T15:24:54.856Z,8.83
2022-12-04T15:30:21.017Z,9.03
2022-12-04T15:35:48.555Z,8.63
2022-12-04T15:41:31.010Z,8.97
2022-12-04T15:46:55.984Z,9.07
2022-12-04T15:52:22.052Z,8.17
2022-12-04T15:57:51.896Z,8.20
2022-12-04T16:03:24.512Z,8.20
2022-12-04T16:08:50.738Z,8.33
2022-12-04T16:14:17.909Z,7.33
2022-12-04T16:19:42.348Z,9.27
2022-12-04T16:25:07.172Z,7.53
2022-12-04T16:30:32.990Z,7.77
2022-12-04T16:35:56.137Z,7.97
2022-12-04T16:41:21.496Z,7.63
2022-12-04T16:46:45.141Z,7.60
2022-12-04T16:52:10.752Z,7.37
2022-12-04T16:57:35.357Z,9.27
2022-12-04T17:02:58.806Z,7.13
2022-12-04T17:08:22.345Z,8.80
2022-12-04T17:13:47.051Z,9.03
2022-12-04T17:19:10.528Z,8.50
2022-12-04T17:24:33.765Z,8.47
2022-12-04T17:29:59.647Z,6.60
2022-12-04T17:35:22.731Z,6.33
2022-12-04T17:40:45.819Z,7.60
2022-12-04T17:46:14.359Z,8.50
2022-12-04T17:51:37.757Z,9.53
2022-12-04T17:57:00.869Z,11.03
2022-12-04T18:02:25.336Z,8.47
2022-12-04T18:07:48.620Z,10.23
2022-12-04T18:13:11.955Z,9.63
2022-12-04T18:18:37.057Z,10.67
2022-12-04T18:24:03.606Z,7.83
2022-12-04T18:29:27.624Z,10.67
2022-12-04T18:34:52.015Z,8.90
2022-12-04T18:40:15.120Z,9.00
2022-12-04T18:45:38.248Z,11.03
2022-12-04T18:51:02.740Z,9.53
2022-12-04T18:56:26.174Z,9.97
2022-12-04T19:01:50.219Z,9.33
2022-12-04T19:07:18.747Z,9.70
2022-12-04T19:12:41.907Z,8.67
2022-12-04T19:18:07.213Z,9.23
2022-12-04T19:23:31.646Z,8.77
2022-12-04T19:28:55.206Z,7.57
2022-12-04T19:34:18.245Z,9.13
2022-12-04T19:39:42.671Z,9.03
2022-12-04T19:45:06.464Z,9.20
2022-12-04T19:50:29.532Z,8.47
2022-12-04T19:55:53.986Z,9.70
2022-12-04T20:01:18.575Z,9.57
2022-12-04T20:06:43.572Z,9.80
2022-12-04T20:12:08.390Z,9.27
2022-12-04T20:17:32.305Z,9.17
2022-12-04T20:22:55.425Z,9.97
2022-12-04T20:28:19.963Z,9.00
2022-12-04T20:33:43.115Z,9.27
2022-12-04T20:39:07.230Z,7.47
2022-12-04T20:44:31.672Z,7.53
2022-12-04T20:49:55.263Z,9.70
2022-12-04T20:55:19.049Z,9.47
2022-12-04T21:00:43.535Z,8.03
2022-12-04T21:06:18.615Z,8.70
2022-12-04T21:11:43.875Z,9.03
2022-12-04T21:17:11.705Z,9.97
2022-12-04T21:22:34.876Z,11.43
2022-12-04T21:27:57.926Z,10.00
2022-12-04T21:33:22.432Z,10.53
2022-12-04T21:38:45.498Z,9.37
2022-12-04T21:44:10.371Z,9.87
2022-12-04T21:49:34.789Z,10.03
2022-12-04T21:54:58.229Z,10.60
2022-12-04T22:00:21.380Z,10.13
2022-12-04T22:05:46.191Z,9.10
2022-12-04T22:11:10.854Z,8.97
2022-12-04T22:16:39.896Z,8.07
2022-12-04T22:22:06.196Z,7.17
2022-12-04T22:27:29.299Z,8.67
2022-12-04T22:32:52.713Z,8.60
2022-12-04T22:38:17.145Z,7.30
2022-12-04T22:43:41.036Z,9.27
2022-12-04T22:49:04.268Z,8.60
2022-12-04T22:54:28.714Z,8.90
2022-12-04T22:59:51.840Z,10.17
2022-12-04T23:05:15.205Z,8.80
2022-12-04T23:10:40.028Z,9.13
2022-12-04T23:16:09.491Z,10.07
2022-12-04T23:21:33.472Z,8.63
2022-12-04T23:26:57.919Z,10.23
2022-12-04T23:32:21.098Z,9.80
2022-12-04T23:37:44.185Z,9.43
2022-12-04T23:43:08.643Z,9.83
2022-12-04T23:48:31.809Z,9.73
2022-12-04T23:53:54.989Z,10.43
2022-12-04T23:59:19.457Z,9.30
